Time;durP1;ratioP1;P1;durP2;ratioP2;P2;SDS_P1;SDS_P2;PMS_P1;PMS_P2;Temp;Humidity;BMP_temperature;BMP_pressure;BME280_temperature;BME280_humidity;BME280_pressure;Samples;Min_cycle;Max_cycle;Signal;HPM_P1;HPM_P2
2022/06/17 00:02:17;;;;;;;5.67;4.57;;;25.50;77.00;;;;;;5043100;28;20238;-81
2022/06/17 00:04:44;;;;;;;4.77;3.97;;;25.40;77.10;;;;;;5058411;28;20649;-82
2022/06/17 00:07:14;;;;;;;4.57;4.13;;;25.40;77.30;;;;;;5073949;28;20201;-82
2022/06/17 00:09:41;;;;;;;6.20;4.37;;;25.40;77.30;;;;;;5058041;28;20858;-82
2022/06/17 00:12:13;;;;;;;8.40;3.87;;;25.40;77.50;;;;;;5058080;28;20202;-81
2022/06/17 00:17:30;;;;;;;8.77;4.13;;;25.30;77.70;;;;;;5057647;28;20249;-82
2022/06/17 00:19:57;;;;;;;8.27;4.90;;;25.40;77.90;;;;;;5075355;28;20221;-82
2022/06/17 00:22:25;;;;;;;5.77;4.40;;;25.30;77.70;;;;;;5038919;28;20281;-82
2022/06/17 00:24:53;;;;;;;5.50;4.63;;;25.30;77.70;;;;;;5034890;28;20634;-81
2022/06/17 00:27:20;;;;;;;4.53;4.13;;;25.30;77.90;;;;;;5035583;28;20232;-82
2022/06/17 00:29:48;;;;;;;6.13;4.40;;;25.20;78.30;;;;;;5057861;28;20290;-81
2022/06/17 00:32:15;;;;;;;5.80;3.50;;;25.20;78.50;;;;;;5055664;28;20211;-82
2022/06/17 00:34:43;;;;;;;6.23;4.20;;;25.10;78.50;;;;;;5040937;28;20221;-81
2022/06/17 00:37:13;;;;;;;5.67;4.93;;;25.10;78.60;;;;;;5051790;28;20298;-82
2022/06/17 00:39:41;;;;;;;6.23;4.17;;;25.10;78.60;;;;;;5057577;28;20209;-82
2022/06/17 00:42:11;;;;;;;7.20;4.67;;;25.10;78.70;;;;;;5057357;28;20233;-82
2022/06/17 00:45:02;;;;;;;5.60;4.97;;;25.10;78.80;;;;;;5049936;28;20676;-82
2022/06/17 00:47:38;;;;;;;5.63;4.67;;;25.10;78.80;;;;;;5075070;28;20255;-83
2022/06/17 00:50:18;;;;;;;6.33;4.53;;;25.00;78.80;;;;;;5041119;28;20207;-82
2022/06/17 00:53:08;;;;;;;5.03;4.53;;;25.00;78.90;;;;;;5050630;28;20216;-82
2022/06/17 00:55:38;;;;;;;6.83;4.13;;;25.00;79.00;;;;;;5071699;28;20319;-81
2022/06/17 00:58:22;;;;;;;4.40;3.73;;;25.00;79.10;;;;;;5057256;28;20206;-82
2022/06/17 01:00:55;;;;;;;5.17;3.97;;;25.00;79.10;;;;;;5054872;28;20197;-82
2022/06/17 01:03:37;;;;;;;5.57;4.50;;;25.00;78.90;;;;;;5054606;28;20210;-82
2022/06/17 01:06:13;;;;;;;5.23;4.70;;;25.00;78.90;;;;;;5063816;28;20233;-82
2022/06/17 01:11:27;;;;;;;5.97;4.53;;;25.00;78.60;;;;;;5058306;28;20235;-82
2022/06/17 01:13:55;;;;;;;5.53;4.70;;;24.90;78.60;;;;;;5078399;28;20549;-83
2022/06/17 01:16:31;;;;;;;6.70;5.10;;;24.90;78.50;;;;;;5053565;28;20252;-82
2022/06/17 01:19:30;;;;;;;6.27;5.30;;;24.90;78.50;;;;;;5075417;28;20198;-82
2022/06/17 01:22:25;;;;;;;8.23;4.77;;;24.80;78.40;;;;;;5065563;28;20594;-82
2022/06/17 01:25:11;;;;;;;5.33;4.83;;;24.80;78.50;;;;;;5051783;28;20556;-81
2022/06/17 01:27:45;;;;;;;7.57;4.83;;;24.70;78.50;;;;;;5061209;28;20207;-82
2022/06/17 01:30:21;;;;;;;6.90;4.50;;;24.70;78.50;;;;;;5059535;28;20217;-82
2022/06/17 01:33:02;;;;;;;5.30;4.43;;;24.60;78.30;;;;;;5036255;28;20237;-82
2022/06/17 01:35:33;;;;;;;5.23;4.57;;;24.60;78.20;;;;;;5060621;28;20224;-82
2022/06/17 01:38:01;;;;;;;5.03;4.60;;;24.60;78.10;;;;;;5040504;28;20714;-82
2022/06/17 01:40:29;;;;;;;4.97;4.40;;;24.60;78.10;;;;;;5059830;28;20266;-82
2022/06/17 01:43:08;;;;;;;5.77;4.50;;;24.60;78.10;;;;;;5055877;28;20718;-81
2022/06/17 01:45:42;;;;;;;7.20;5.30;;;24.60;77.80;;;;;;5073059;28;20880;-81
2022/06/17 01:48:11;;;;;;;6.37;5.37;;;24.60;77.80;;;;;;5056455;28;20219;-81
2022/06/17 01:50:42;;;;;;;7.50;4.27;;;24.50;77.60;;;;;;5071408;28;20222;-82
2022/06/17 01:53:15;;;;;;;6.50;4.73;;;24.50;77.50;;;;;;5061058;28;20221;-82
2022/06/17 01:55:50;;;;;;;5.47;4.90;;;24.50;77.60;;;;;;5044613;28;20225;-82
2022/06/17 01:58:23;;;;;;;8.73;5.00;;;24.50;78.20;;;;;;5045131;28;20205;-81
2022/06/17 02:00:51;;;;;;;6.27;5.17;;;24.50;77.60;;;;;;5043106;28;20205;-81
2022/06/17 02:03:26;;;;;;;6.87;4.93;;;24.50;77.60;;;;;;5042882;28;20220;-82
2022/06/17 02:06:12;;;;;;;6.87;5.10;;;24.50;77.70;;;;;;5060557;28;20511;-82
2022/06/17 02:08:39;;;;;;;9.80;5.10;;;24.40;77.90;;;;;;5061135;28;20549;-82
2022/06/17 02:11:08;;;;;;;6.50;5.20;;;24.30;78.10;;;;;;5043528;28;20217;-81
2022/06/17 02:13:41;;;;;;;5.87;4.30;;;24.30;78.40;;;;;;5056775;28;20194;-81
2022/06/17 02:16:21;;;;;;;5.70;5.13;;;24.30;78.60;;;;;;5055996;28;20249;-82
2022/06/17 02:19:12;;;;;;;5.77;4.40;;;24.20;78.60;;;;;;5052347;28;20297;-81
2022/06/17 02:21:48;;;;;;;9.27;5.30;;;24.20;78.80;;;;;;5058642;28;20233;-81
2022/06/17 02:24:18;;;;;;;5.40;4.90;;;24.20;78.90;;;;;;5056840;28;20221;-82
2022/06/17 02:26:46;;;;;;;8.53;4.90;;;24.10;78.80;;;;;;5075612;28;20206;-82
2022/06/17 02:29:15;;;;;;;5.10;4.60;;;24.10;78.80;;;;;;5059886;28;20270;-81
2022/06/17 02:31:43;;;;;;;4.93;4.43;;;24.10;78.70;;;;;;5059453;28;20206;-82
2022/06/17 02:34:14;;;;;;;8.37;5.17;;;24.10;78.50;;;;;;5042226;28;20549;-81
2022/06/17 02:36:56;;;;;;;6.63;4.50;;;24.10;78.60;;;;;;5074954;28;20213;-82
2022/06/17 02:39:27;;;;;;;5.90;4.47;;;24.10;78.70;;;;;;5076225;28;20201;-82
2022/06/17 02:41:56;;;;;;;5.57;4.70;;;24.10;78.60;;;;;;5042188;28;20222;-81
2022/06/17 02:44:33;;;;;;;4.90;4.50;;;24.20;78.50;;;;;;5057215;28;20244;-81
2022/06/17 02:47:02;;;;;;;9.50;4.83;;;24.20;78.40;;;;;;5025080;28;20231;-81
2022/06/17 02:49:34;;;;;;;10.10;4.43;;;24.20;78.30;;;;;;5064142;28;20228;-82
2022/06/17 02:52:06;;;;;;;5.10;4.70;;;24.30;78.40;;;;;;5059680;28;20213;-81
2022/06/17 02:54:39;;;;;;;4.83;4.17;;;24.30;78.50;;;;;;5059005;28;20734;-82
2022/06/17 02:57:09;;;;;;;6.80;4.40;;;24.30;78.60;;;;;;5059225;28;20221;-82
2022/06/17 02:59:48;;;;;;;4.80;4.40;;;24.30;78.60;;;;;;5055874;28;20211;-81
2022/06/17 03:02:23;;;;;;;4.50;4.10;;;24.30;78.80;;;;;;5058066;28;20271;-81
2022/06/17 03:04:59;;;;;;;5.43;4.77;;;24.30;78.90;;;;;;5048327;28;20218;-82
2022/06/17 03:07:30;;;;;;;6.60;5.00;;;24.20;78.90;;;;;;5044525;28;20646;-82
2022/06/17 03:10:32;;;;;;;6.23;5.73;;;24.20;79.00;;;;;;5059193;28;20229;-82
2022/06/17 03:13:05;;;;;;;7.83;5.50;;;24.20;79.10;;;;;;5062453;28;20206;-83
2022/06/17 03:15:33;;;;;;;9.03;5.90;;;24.20;79.10;;;;;;5058643;28;20226;-82
2022/06/17 03:18:00;;;;;;;5.67;5.00;;;24.20;79.20;;;;;;5042762;28;20217;-82
2022/06/17 03:20:32;;;;;;;7.30;4.77;;;24.20;79.30;;;;;;5042797;28;20642;-82
2022/06/17 03:23:10;;;;;;;5.20;4.77;;;24.20;79.40;;;;;;5059150;28;20708;-82
2022/06/17 03:25:44;;;;;;;8.33;5.20;;;24.20;79.50;;;;;;5058940;28;20209;-81
2022/06/17 03:28:16;;;;;;;5.50;5.00;;;24.10;79.50;;;;;;5059394;28;20210;-82
2022/06/17 03:30:48;;;;;;;9.03;5.50;;;24.10;79.80;;;;;;5075186;28;20186;-81
2022/06/17 03:33:26;;;;;;;5.50;5.00;;;24.10;80.10;;;;;;5076459;28;20211;-81
2022/06/17 03:35:58;;;;;;;5.23;4.83;;;24.00;80.20;;;;;;5059215;28;20227;-82
2022/06/17 03:38:30;;;;;;;5.83;5.23;;;24.00;80.30;;;;;;5037833;28;20197;-81
2022/06/17 03:41:09;;;;;;;10.23;5.00;;;24.00;80.50;;;;;;5075876;28;20221;-82
2022/06/17 03:43:55;;;;;;;5.27;4.77;;;24.00;80.60;;;;;;5073731;28;20680;-82
2022/06/17 03:46:26;;;;;;;9.90;5.57;;;23.90;80.80;;;;;;5054832;28;20205;-82
2022/06/17 03:49:10;;;;;;;7.50;4.90;;;23.90;80.90;;;;;;5059905;28;20210;-82
2022/06/17 03:51:41;;;;;;;8.57;4.63;;;23.90;81.10;;;;;;5061421;28;20222;-82
2022/06/17 03:54:15;;;;;;;5.33;4.83;;;23.90;81.30;;;;;;5052772;28;20245;-82
2022/06/17 03:56:48;;;;;;;7.93;5.47;;;23.90;81.50;;;;;;5070030;28;20212;-82
2022/06/17 03:59:20;;;;;;;5.93;5.33;;;23.90;81.50;;;;;;5058470;28;20607;-82
2022/06/17 04:01:58;;;;;;;5.90;5.33;;;23.90;81.40;;;;;;5057858;28;20197;-82
2022/06/17 04:04:40;;;;;;;5.30;4.83;;;24.00;81.50;;;;;;5054374;28;20699;-82
2022/06/17 04:07:11;;;;;;;6.80;4.90;;;24.00;81.60;;;;;;5044376;28;20207;-82
2022/06/17 04:09:44;;;;;;;6.27;4.70;;;24.00;81.50;;;;;;5057894;28;20312;-82
2022/06/17 04:12:13;;;;;;;9.23;5.23;;;24.00;81.70;;;;;;5048090;28;20577;-82
2022/06/17 04:14:58;;;;;;;7.80;5.60;;;24.00;81.80;;;;;;5060463;28;20267;-82
2022/06/17 04:17:43;;;;;;;6.33;5.73;;;24.00;82.00;;;;;;5043127;28;20237;-82
2022/06/17 04:20:42;;;;;;;5.87;5.10;;;24.10;82.20;;;;;;5064200;28;20209;-82
2022/06/17 04:23:24;;;;;;;6.13;5.07;;;24.20;82.10;;;;;;5054384;28;20539;-83
2022/06/17 04:26:30;;;;;;;6.30;5.70;;;24.20;82.00;;;;;;5064305;28;20232;-82
2022/06/17 04:29:03;;;;;;;8.83;5.73;;;24.30;81.80;;;;;;5052378;28;20219;-82
2022/06/17 04:31:35;;;;;;;6.80;6.23;;;24.30;81.60;;;;;;5057997;28;20220;-82
2022/06/17 04:34:14;;;;;;;10.17;6.23;;;24.30;81.60;;;;;;5061065;28;20224;-82
2022/06/17 04:36:50;;;;;;;6.93;5.07;;;24.40;82.00;;;;;;5039338;28;20283;-82
2022/06/17 04:39:39;;;;;;;6.80;5.20;;;24.50;81.70;;;;;;5057705;28;20198;-82
2022/06/17 04:42:23;;;;;;;6.43;5.43;;;24.50;81.80;;;;;;5057919;28;20210;-82
2022/06/17 04:44:51;;;;;;;7.43;5.60;;;24.60;81.80;;;;;;5046131;28;20300;-82
2022/06/17 04:47:21;;;;;;;7.73;5.00;;;24.70;81.40;;;;;;5039880;28;21567;-82
2022/06/17 04:50:05;;;;;;;8.83;5.53;;;24.70;81.10;;;;;;5026152;28;20304;-82
2022/06/17 04:52:49;;;;;;;6.00;5.33;;;24.80;80.90;;;;;;5037331;28;20211;-82
2022/06/17 04:55:44;;;;;;;7.57;6.17;;;24.80;80.90;;;;;;5055958;28;20225;-82
2022/06/17 04:58:23;;;;;;;8.20;6.03;;;24.90;80.70;;;;;;5044739;28;20255;-81
2022/06/17 05:00:57;;;;;;;6.33;5.73;;;25.00;80.50;;;;;;5048562;28;20207;-81
2022/06/17 05:04:01;;;;;;;8.13;5.67;;;25.10;80.10;;;;;;5027649;28;20229;-81
2022/06/17 05:06:55;;;;;;;5.80;5.30;;;25.20;79.90;;;;;;5057237;28;20215;-82
2022/06/17 05:09:43;;;;;;;5.73;5.27;;;25.30;79.70;;;;;;5058995;28;20544;-81
2022/06/17 05:12:33;;;;;;;7.47;5.93;;;25.40;79.50;;;;;;5058596;28;20203;-81
2022/06/17 05:15:06;;;;;;;6.70;5.63;;;25.40;79.30;;;;;;5043343;28;20245;-81
2022/06/17 05:17:38;;;;;;;7.03;6.30;;;25.50;79.30;;;;;;5044595;28;20221;-81
2022/06/17 05:20:07;;;;;;;8.50;6.77;;;25.60;79.10;;;;;;5050057;28;20301;-82
2022/06/17 05:22:39;;;;;;;8.03;6.80;;;25.60;78.90;;;;;;5045145;28;20194;-81
2022/06/17 05:25:22;;;;;;;7.20;5.90;;;25.60;78.90;;;;;;5057802;28;20245;-83
2022/06/17 05:27:50;;;;;;;6.50;5.87;;;25.60;79.10;;;;;;5045459;28;20216;-81
2022/06/17 05:30:17;;;;;;;5.73;5.00;;;25.60;79.20;;;;;;5060235;28;20271;-81
2022/06/17 05:32:49;;;;;;;8.03;5.53;;;25.70;79.40;;;;;;5044359;28;20199;-81
2022/06/17 05:35:22;;;;;;;6.83;6.17;;;25.70;79.50;;;;;;5041797;28;20914;-81
2022/06/17 05:37:50;;;;;;;9.83;5.43;;;25.80;79.60;;;;;;5054947;28;20293;-81
2022/06/17 05:40:18;;;;;;;6.53;5.73;;;25.80;79.80;;;;;;5034882;28;20547;-81
2022/06/17 05:42:47;;;;;;;6.00;4.80;;;25.90;79.90;;;;;;5052463;28;20549;-81
2022/06/17 05:45:21;;;;;;;6.33;5.30;;;26.00;80.00;;;;;;5042398;28;20238;-81
2022/06/17 05:48:08;;;;;;;6.93;4.40;;;26.20;79.60;;;;;;5058324;28;20215;-81
2022/06/17 05:50:53;;;;;;;6.10;4.67;;;26.50;78.70;;;;;;5059965;28;20264;-81
2022/06/17 05:53:41;;;;;;;5.30;4.60;;;26.70;78.00;;;;;;5030359;28;20689;-82
2022/06/17 05:56:28;;;;;;;4.20;3.90;;;26.80;77.10;;;;;;5053572;28;20291;-81
2022/06/17 05:58:55;;;;;;;8.50;4.57;;;26.80;76.20;;;;;;5046820;28;20594;-81
2022/06/17 06:01:23;;;;;;;4.83;3.53;;;26.90;76.00;;;;;;5040720;28;20206;-81
2022/06/17 06:03:51;;;;;;;4.17;3.70;;;27.00;75.90;;;;;;5057184;28;20533;-82
2022/06/17 06:06:19;;;;;;;3.70;3.33;;;27.20;75.80;;;;;;5035669;28;20207;-81
2022/06/17 06:08:51;;;;;;;2.90;2.63;;;27.30;75.00;;;;;;5057190;28;20206;-82
2022/06/17 06:11:19;;;;;;;3.37;2.73;;;27.50;74.40;;;;;;5038775;28;20702;-81
2022/06/17 06:13:46;;;;;;;3.80;3.50;;;27.70;74.00;;;;;;5051673;28;20202;-81
2022/06/17 06:16:15;;;;;;;6.90;2.43;;;28.00;73.70;;;;;;5057233;28;20224;-82
2022/06/17 06:18:50;;;;;;;2.30;2.10;;;28.30;72.10;;;;;;5016000;28;20207;-82
2022/06/17 06:21:22;;;;;;;2.23;1.90;;;28.60;69.70;;;;;;5024460;28;20216;-82
2022/06/17 06:23:50;;;;;;;2.03;1.87;;;28.80;67.10;;;;;;5025483;28;20205;-81
2022/06/17 06:26:23;;;;;;;4.67;2.10;;;29.10;65.50;;;;;;5026693;28;20836;-81
2022/06/17 06:29:26;;;;;;;3.40;1.90;;;29.30;64.80;;;;;;5042082;28;20221;-83
2022/06/17 06:31:55;;;;;;;2.40;2.20;;;29.50;63.90;;;;;;5047968;28;20643;-83
2022/06/17 06:35:01;;;;;;;2.43;2.23;;;29.70;62.70;;;;;;5040648;28;20308;-82
2022/06/17 06:37:30;;;;;;;4.50;2.00;;;29.90;61.20;;;;;;5039537;28;20238;-82
2022/06/17 06:39:59;;;;;;;2.53;1.67;;;30.00;59.20;;;;;;5043080;28;20198;-81
2022/06/17 06:42:33;;;;;;;3.83;2.10;;;30.00;59.50;;;;;;5040399;28;20275;-82
2022/06/17 06:45:25;;;;;;;2.17;1.70;;;30.10;59.40;;;;;;5057481;28;20238;-83
2022/06/17 06:47:55;;;;;;;4.87;2.20;;;30.10;58.40;;;;;;5071452;28;20802;-82
2022/06/17 06:50:27;;;;;;;4.33;2.20;;;30.20;57.90;;;;;;5073511;28;20637;-82
2022/06/17 06:52:55;;;;;;;2.30;1.80;;;30.20;56.80;;;;;;5063020;28;20210;-82
2022/06/17 06:55:22;;;;;;;4.40;1.87;;;30.20;57.10;;;;;;5059394;28;20216;-81
2022/06/17 06:57:56;;;;;;;3.47;2.00;;;30.20;56.50;;;;;;5053142;28;20309;-81
2022/06/17 07:00:32;;;;;;;1.80;1.70;;;30.10;56.80;;;;;;5049642;28;20210;-82
2022/06/17 07:02:59;;;;;;;7.60;2.13;;;30.10;57.30;;;;;;5077114;28;20225;-82
2022/06/17 07:05:29;;;;;;;2.10;1.90;;;30.10;56.70;;;;;;5073382;28;20198;-83
2022/06/17 07:07:58;;;;;;;4.27;2.00;;;30.10;56.00;;;;;;5053209;28;20217;-81
2022/06/17 07:10:30;;;;;;;2.00;1.73;;;30.00;56.20;;;;;;5057352;28;20201;-82
2022/06/17 07:12:57;;;;;;;3.83;1.90;;;30.10;55.70;;;;;;5056895;28;20570;-82
2022/06/17 07:15:25;;;;;;;2.10;1.90;;;30.20;56.20;;;;;;5054775;28;20232;-82
2022/06/17 07:17:56;;;;;;;1.73;1.63;;;30.30;54.30;;;;;;5076656;28;20224;-81
2022/06/17 07:20:25;;;;;;;5.60;1.90;;;30.40;53.50;;;;;;5071865;28;20630;-82
2022/06/17 07:22:53;;;;;;;3.53;1.90;;;30.50;53.80;;;;;;5067507;28;20247;-82
2022/06/17 07:25:20;;;;;;;2.10;1.80;;;30.60;54.60;;;;;;5075682;28;20193;-82
2022/06/17 07:27:48;;;;;;;2.77;1.60;;;30.70;52.90;;;;;;5041087;28;20218;-82
2022/06/17 07:30:18;;;;;;;4.23;1.67;;;30.90;53.00;;;;;;5065435;28;20218;-81
2022/06/17 07:32:46;;;;;;;1.77;1.67;;;31.00;52.80;;;;;;5072814;28;20222;-82
2022/06/17 07:35:15;;;;;;;5.43;1.77;;;31.10;52.00;;;;;;5058838;28;20629;-82
2022/06/17 07:40:30;;;;;;;4.77;2.00;;;31.00;52.70;;;;;;5075307;28;20300;-83
2022/06/17 07:42:58;;;;;;;3.17;1.90;;;31.20;53.10;;;;;;5056512;28;20201;-82
2022/06/17 07:45:28;;;;;;;3.40;1.70;;;31.30;52.60;;;;;;5055324;28;20541;-82
2022/06/17 07:47:56;;;;;;;2.77;1.90;;;31.50;52.30;;;;;;5049168;28;20220;-82
2022/06/17 07:50:32;;;;;;;4.37;1.80;;;31.70;51.60;;;;;;5044668;28;20253;-80
2022/06/17 07:53:00;;;;;;;2.20;1.80;;;31.80;48.30;;;;;;5037932;28;20195;-80
2022/06/17 07:55:27;;;;;;;3.03;2.17;;;31.60;48.20;;;;;;5047281;28;20288;-81
2022/06/17 07:57:55;;;;;;;3.10;1.90;;;31.40;48.50;;;;;;5038244;28;20226;-81
2022/06/17 08:00:29;;;;;;;3.57;2.07;;;31.20;49.70;;;;;;5032152;28;20220;-82
2022/06/17 08:02:57;;;;;;;3.93;2.23;;;31.00;51.40;;;;;;5034214;28;20556;-82
2022/06/17 08:05:24;;;;;;;4.10;2.33;;;31.00;51.20;;;;;;5038762;28;20210;-82
2022/06/17 08:07:53;;;;;;;1.97;1.80;;;31.00;49.70;;;;;;5034780;28;20563;-81
2022/06/17 08:10:26;;;;;;;2.80;1.90;;;31.00;49.40;;;;;;5052548;28;20678;-82
2022/06/17 08:12:53;;;;;;;2.30;1.87;;;31.20;50.10;;;;;;5056525;28;20309;-81
2022/06/17 08:15:21;;;;;;;4.70;2.00;;;31.40;50.20;;;;;;5038480;28;20202;-82
2022/06/17 08:17:49;;;;;;;6.37;2.10;;;31.70;50.00;;;;;;5043324;28;20237;-82
2022/06/17 08:20:19;;;;;;;2.90;1.73;;;32.00;48.30;;;;;;5050100;28;20252;-82
2022/06/17 08:22:47;;;;;;;2.40;1.83;;;32.10;46.60;;;;;;5042876;28;20260;-83
2022/06/17 08:25:15;;;;;;;4.93;2.20;;;32.10;46.80;;;;;;5041904;28;20268;-83
2022/06/17 08:27:42;;;;;;;6.17;2.20;;;32.10;47.90;;;;;;5047994;28;20194;-82
2022/06/17 08:30:10;;;;;;;2.97;1.87;;;32.30;47.50;;;;;;5055549;28;20693;-82
2022/06/17 08:32:48;;;;;;;4.40;2.00;;;32.40;47.00;;;;;;5042541;28;20305;-82
2022/06/17 08:35:21;;;;;;;3.07;2.07;;;32.50;46.60;;;;;;5052920;28;20210;-82
2022/06/17 08:37:55;;;;;;;1.83;1.60;;;32.50;45.80;;;;;;5046824;28;20311;-82
2022/06/17 08:40:43;;;;;;;4.23;2.07;;;32.50;44.60;;;;;;5053323;28;20604;-82
2022/06/17 08:43:16;;;;;;;2.23;1.90;;;32.40;44.80;;;;;;5041227;28;20653;-82
2022/06/17 08:45:46;;;;;;;4.30;2.20;;;32.40;44.10;;;;;;5037603;28;20229;-81
2022/06/17 08:48:47;;;;;;;2.00;1.90;;;32.40;44.70;;;;;;5058034;28;20206;-82
2022/06/17 08:51:45;;;;;;;3.80;2.37;;;32.50;43.40;;;;;;5050697;28;20240;-82
2022/06/17 08:54:16;;;;;;;2.20;2.10;;;32.50;43.70;;;;;;5074275;28;20221;-83
2022/06/17 08:56:43;;;;;;;3.70;2.20;;;32.50;44.40;;;;;;5054283;28;20206;-82
2022/06/17 09:00:05;;;;;;;5.43;2.23;;;32.60;44.10;;;;;;5057378;28;20225;-82
2022/06/17 09:03:09;;;;;;;2.83;2.47;;;32.70;45.30;;;;;;5008437;28;20625;-83
2022/06/17 09:05:58;;;;;;;2.40;2.20;;;32.90;45.70;;;;;;5011933;28;20217;-83
2022/06/17 09:09:09;;;;;;;2.90;2.13;;;33.20;46.00;;;;;;5070651;28;20297;-83
2022/06/17 09:11:54;;;;;;;4.43;2.40;;;33.50;44.70;;;;;;5004703;28;20273;-82
2022/06/17 09:14:55;;;;;;;3.23;2.60;;;33.80;44.20;;;;;;5070223;28;20202;-82
2022/06/17 09:17:39;;;;;;;2.10;1.90;;;33.80;42.50;;;;;;5067372;28;20213;-83
2022/06/17 09:20:08;;;;;;;2.40;2.20;;;33.80;44.10;;;;;;5074157;28;20272;-82
2022/06/17 09:22:42;;;;;;;3.00;2.47;;;33.90;44.70;;;;;;5050374;28;20628;-81
2022/06/17 09:25:15;;;;;;;3.30;1.90;;;34.10;44.30;;;;;;5062636;28;20202;-83
2022/06/17 09:27:48;;;;;;;3.33;2.23;;;34.20;43.40;;;;;;5070273;28;20194;-84
2022/06/17 09:30:22;;;;;;;2.57;2.37;;;34.30;43.50;;;;;;5053799;28;20194;-82
2022/06/17 09:32:56;;;;;;;2.40;2.20;;;34.30;43.80;;;;;;5047309;28;20216;-81
2022/06/17 09:35:42;;;;;;;4.57;2.33;;;34.40;43.50;;;;;;5060992;28;20222;-81
2022/06/17 09:38:22;;;;;;;4.10;2.17;;;34.60;43.80;;;;;;5058810;28;20226;-82
2022/06/17 09:41:27;;;;;;;2.43;2.23;;;34.80;42.40;;;;;;5044576;28;20201;-82
2022/06/17 09:44:02;;;;;;;6.90;2.70;;;34.90;42.80;;;;;;5045190;28;20233;-82
2022/06/17 09:46:38;;;;;;;2.40;2.23;;;35.00;43.00;;;;;;5047904;28;20301;-82
2022/06/17 09:49:35;;;;;;;2.77;2.57;;;35.30;43.10;;;;;;5052878;28;20219;-82
2022/06/17 09:52:17;;;;;;;3.53;2.70;;;35.40;40.60;;;;;;5071420;28;20201;-82
2022/06/17 09:54:53;;;;;;;3.23;2.90;;;35.30;42.00;;;;;;5049409;28;20246;-81
2022/06/17 09:57:34;;;;;;;4.70;2.90;;;35.30;41.90;;;;;;5053213;28;20580;-82
2022/06/17 10:00:08;;;;;;;3.13;2.80;;;35.20;41.00;;;;;;5045735;28;20292;-81
2022/06/17 10:02:47;;;;;;;5.43;2.97;;;34.90;41.50;;;;;;5034057;28;20230;-81
2022/06/17 10:05:21;;;;;;;7.50;3.13;;;34.70;42.50;;;;;;5071983;28;20202;-81
2022/06/17 10:07:55;;;;;;;5.03;3.30;;;34.60;42.60;;;;;;5060835;28;20706;-82
2022/06/17 10:10:40;;;;;;;3.10;2.90;;;34.60;42.80;;;;;;5060447;28;20208;-82
2022/06/17 10:13:40;;;;;;;5.83;3.03;;;34.70;43.10;;;;;;5055442;28;20255;-81
2022/06/17 10:19:22;;;;;;;4.70;3.60;;;34.90;42.00;;;;;;5076974;28;20213;-82
2022/06/17 10:21:58;;;;;;;3.63;3.30;;;34.90;42.90;;;;;;5073496;28;20543;-81
2022/06/17 10:25:17;;;;;;;7.07;3.00;;;34.90;43.70;;;;;;5070114;28;20625;-81
2022/06/17 10:28:09;;;;;;;3.87;3.57;;;35.10;43.40;;;;;;5018811;28;20273;-82
2022/06/17 10:30:53;;;;;;;8.43;3.40;;;35.30;42.20;;;;;;5059868;28;20558;-82
2022/06/17 10:33:21;;;;;;;4.53;3.10;;;35.30;42.60;;;;;;5060516;28;20237;-82
2022/06/17 10:35:49;;;;;;;4.63;3.47;;;35.50;42.30;;;;;;5031916;28;20198;-82
2022/06/17 10:38:21;;;;;;;8.97;3.33;;;35.60;43.30;;;;;;5054264;28;20233;-83
2022/06/17 10:40:51;;;;;;;4.80;3.13;;;35.70;40.70;;;;;;5028565;28;20684;-81
2022/06/17 10:43:23;;;;;;;4.00;3.67;;;35.40;41.40;;;;;;5069271;28;20199;-81
2022/06/17 10:45:52;;;;;;;6.03;3.63;;;35.30;42.20;;;;;;5067891;28;20212;-81
2022/06/17 10:48:54;;;;;;;4.43;4.03;;;35.30;43.20;;;;;;5054328;28;20206;-82
2022/06/17 10:51:23;;;;;;;4.23;3.90;;;35.40;41.40;;;;;;5042928;28;20284;-82
2022/06/17 10:53:56;;;;;;;6.53;3.80;;;35.50;41.30;;;;;;5054449;28;20619;-81
2022/06/17 10:56:30;;;;;;;6.80;3.80;;;35.50;42.40;;;;;;5059414;28;20221;-83
2022/06/17 10:59:01;;;;;;;4.50;3.17;;;35.70;42.90;;;;;;5051850;28;20307;-82
2022/06/17 11:01:47;;;;;;;6.13;4.13;;;35.70;41.90;;;;;;5059197;28;20523;-82
2022/06/17 11:04:19;;;;;;;4.53;3.77;;;35.80;42.90;;;;;;5073217;28;20218;-82
2022/06/17 11:07:01;;;;;;;5.57;3.77;;;35.90;41.60;;;;;;5054742;28;20206;-83
2022/06/17 11:09:33;;;;;;;7.47;4.33;;;35.90;41.90;;;;;;5059781;28;20200;-81
2022/06/17 11:12:04;;;;;;;5.47;4.30;;;36.00;42.00;;;;;;5060695;28;20210;-82
2022/06/17 11:14:43;;;;;;;5.17;4.40;;;36.10;42.50;;;;;;5062824;28;20266;-82
2022/06/17 11:17:23;;;;;;;6.50;4.50;;;36.20;41.90;;;;;;5065988;28;20277;-83
2022/06/17 11:19:54;;;;;;;4.47;4.07;;;36.30;41.80;;;;;;5065349;28;20284;-82
2022/06/17 11:22:48;;;;;;;4.70;4.30;;;36.30;42.20;;;;;;5058737;28;20654;-82
2022/06/17 11:25:27;;;;;;;6.00;4.80;;;36.40;42.70;;;;;;5042637;28;20201;-82
2022/06/17 11:28:17;;;;;;;7.47;4.13;;;36.30;41.10;;;;;;5072665;28;20219;-82
2022/06/17 11:30:51;;;;;;;6.95;5.10;;;36.30;41.80;;;;;;5008898;28;20226;-81
2022/06/17 11:33:35;;;;;;;7.60;4.90;;;36.30;41.50;;;;;;5055662;28;20214;-82
2022/06/17 11:36:22;;;;;;;5.00;4.60;;;36.40;40.90;;;;;;5076357;28;20284;-82
2022/06/17 11:38:50;;;;;;;6.97;5.10;;;36.50;41.50;;;;;;5058965;28;20213;-81
2022/06/17 11:41:31;;;;;;;6.07;5.50;;;36.40;41.30;;;;;;5056478;28;20674;-82
2022/06/17 11:44:19;;;;;;;6.15;5.60;;;36.30;40.50;;;;;;5042391;28;20328;-82
2022/06/17 11:46:51;;;;;;;6.88;5.40;;;36.30;41.80;;;;;;5072938;28;20216;-83
2022/06/17 11:49:20;;;;;;;6.50;5.50;;;36.30;41.70;;;;;;5059349;28;20220;-83
2022/06/17 11:52:01;;;;;;;6.30;5.10;;;36.30;41.90;;;;;;5074145;28;20228;-82
2022/06/17 11:54:34;;;;;;;6.73;5.10;;;36.20;41.30;;;;;;5057326;28;20218;-82
2022/06/17 11:57:18;;;;;;;4.90;4.50;;;36.10;41.30;;;;;;5058055;28;20817;-82
2022/06/17 11:59:50;;;;;;;7.10;5.13;;;36.00;42.70;;;;;;5055175;28;20249;-82
2022/06/17 12:02:18;;;;;;;10.10;4.90;;;35.90;42.40;;;;;;5063229;28;20207;-82
2022/06/17 12:04:56;;;;;;;5.07;4.67;;;35.90;43.30;;;;;;5059295;28;20203;-82
2022/06/17 12:07:32;;;;;;;6.13;4.83;;;35.80;41.50;;;;;;5050834;28;20637;-82
2022/06/17 12:10:27;;;;;;;5.97;4.40;;;35.80;41.60;;;;;;5058011;28;20201;-82
2022/06/17 12:13:19;;;;;;;4.93;4.50;;;36.00;42.80;;;;;;5059073;28;20218;-82
2022/06/17 12:15:59;;;;;;;5.67;4.30;;;36.10;42.60;;;;;;5057429;28;20208;-81
2022/06/17 12:18:30;;;;;;;6.15;4.65;;;36.30;41.50;;;;;;5038367;28;20219;-82
2022/06/17 12:21:12;;;;;;;5.38;4.38;;;36.30;40.70;;;;;;5056251;28;20194;-82
2022/06/17 12:23:51;;;;;;;6.07;5.27;;;36.20;40.60;;;;;;5072541;28;20254;-81
2022/06/17 12:26:37;;;;;;;5.55;4.43;;;36.20;41.00;;;;;;5050183;28;20289;-82
2022/06/17 12:29:17;;;;;;;5.35;4.75;;;36.20;40.30;;;;;;5031559;28;20546;-82
2022/06/17 12:31:57;;;;;;;5.93;4.70;;;36.20;40.80;;;;;;5056009;28;20558;-82
2022/06/17 12:35:15;;;;;;;6.03;4.60;;;36.20;41.20;;;;;;5052409;28;20239;-82
2022/06/17 12:38:00;;;;;;;5.17;4.13;;;36.20;41.40;;;;;;5019698;28;20226;-82
2022/06/17 12:40:52;;;;;;;4.77;4.07;;;36.30;42.60;;;;;;5075561;28;20186;-83
2022/06/17 12:43:42;;;;;;;6.07;4.23;;;36.30;41.40;;;;;;5057081;28;20228;-81
2022/06/17 12:46:28;;;;;;;4.30;3.90;;;36.40;41.00;;;;;;5039607;28;20202;-82
2022/06/17 12:55:39;;;;;;;5.00;4.50;;;36.30;41.20;;;;;;4971300;28;20222;-82
2022/06/17 12:58:15;;;;;;;5.93;4.50;;;36.50;40.90;;;;;;5032296;28;20317;-82
2022/06/17 13:00:48;;;;;;;6.37;3.77;;;36.50;40.50;;;;;;5073603;28;20281;-82
2022/06/17 13:03:21;;;;;;;5.23;4.10;;;36.50;40.50;;;;;;5057513;28;20525;-82
2022/06/17 13:05:50;;;;;;;5.80;4.03;;;36.40;40.00;;;;;;5061758;28;20202;-82
2022/06/17 13:08:26;;;;;;;6.05;3.88;;;36.40;40.10;;;;;;5071422;28;20203;-81
2022/06/17 13:11:05;;;;;;;5.55;4.30;;;36.20;39.20;;;;;;5061367;28;20208;-82
2022/06/17 13:14:00;;;;;;;5.80;4.03;;;36.00;40.10;;;;;;5078987;28;20201;-82
2022/06/17 13:16:45;;;;;;;4.40;4.00;;;35.90;40.40;;;;;;5055363;28;20210;-81
2022/06/17 13:19:13;;;;;;;8.10;4.00;;;35.90;40.70;;;;;;5060531;28;20279;-81
2022/06/17 13:22:34;;;;;;;4.10;3.70;;;36.00;40.40;;;;;;5045181;28;20517;-81
2022/06/17 13:25:28;;;;;;;5.43;3.90;;;36.20;40.40;;;;;;5023486;28;20215;-82
2022/06/17 13:28:08;;;;;;;4.85;4.32;;;36.30;39.30;;;;;;5046778;28;20588;-82
2022/06/17 13:30:53;;;;;;;7.50;4.20;;;36.30;39.70;;;;;;5069735;28;20289;-81
2022/06/17 13:33:35;;;;;;;6.57;4.20;;;36.30;38.70;;;;;;5062373;28;20193;-81
2022/06/17 13:36:34;;;;;;;7.37;4.57;;;36.30;38.90;;;;;;5052966;28;20225;-82
2022/06/17 13:39:01;;;;;;;6.20;3.83;;;36.30;41.30;;;;;;5045836;28;20569;-81
2022/06/17 13:41:38;;;;;;;7.70;4.47;;;36.30;39.50;;;;;;5071259;28;20190;-82
2022/06/17 13:44:20;;;;;;;8.00;4.43;;;36.30;39.50;;;;;;5051644;28;20249;-82
2022/06/17 13:47:14;;;;;;;8.38;4.20;;;36.20;40.00;;;;;;5050082;28;20222;-82
2022/06/17 13:49:49;;;;;;;7.43;4.10;;;36.10;40.40;;;;;;5073206;28;20209;-81
2022/06/17 13:52:42;;;;;;;8.37;4.60;;;36.10;40.60;;;;;;5058301;28;20284;-83
2022/06/17 13:55:28;;;;;;;6.57;4.57;;;36.10;40.50;;;;;;5058314;28;20302;-81